createdAt,value
2022-08-26T00:01:53.067Z,18.50
2022-08-26T00:04:23.445Z,18.50
2022-08-26T00:06:51.128Z,18.40
2022-08-26T00:09:18.402Z,18.40
2022-08-26T00:11:46.087Z,18.40
2022-08-26T00:14:14.837Z,18.40
2022-08-26T00:16:48.103Z,18.40
2022-08-26T00:19:20.248Z,18.40
2022-08-26T00:21:48.753Z,18.40
2022-08-26T00:24:17.534Z,18.40
2022-08-26T00:26:44.865Z,18.40
2022-08-26T00:29:12.262Z,18.30
2022-08-26T00:31:40.116Z,18.30
2022-08-26T00:34:09.327Z,18.30
2022-08-26T00:36:37.469Z,18.30
2022-08-26T00:39:07.411Z,18.20
2022-08-26T00:41:35.865Z,18.20
2022-08-26T00:44:03.438Z,18.20
2022-08-26T00:46:33.712Z,18.20
2022-08-26T00:49:37.633Z,18.10
2022-08-26T00:52:07.133Z,18.20
2022-08-26T00:54:40.257Z,18.10
2022-08-26T00:57:16.267Z,18.10
2022-08-26T00:59:49.342Z,18.10
2022-08-26T01:02:20.143Z,18.10
2022-08-26T01:04:55.956Z,18.10
2022-08-26T01:07:30.295Z,18.00
2022-08-26T01:10:02.424Z,18.00
2022-08-26T01:12:33.122Z,18.00
2022-08-26T01:15:02.119Z,18.00
2022-08-26T01:17:29.443Z,17.90
2022-08-26T01:20:31.717Z,17.90
2022-08-26T01:23:07.251Z,17.90
2022-08-26T01:25:39.085Z,18.00
2022-08-26T01:28:09.015Z,17.90
2022-08-26T01:30:37.554Z,17.90
2022-08-26T01:33:06.205Z,17.80
2022-08-26T01:35:33.931Z,17.80
2022-08-26T01:38:02.244Z,17.80
2022-08-26T01:40:32.645Z,17.80
2022-08-26T01:43:00.536Z,17.80
2022-08-26T01:45:30.081Z,17.80
2022-08-26T01:47:58.105Z,17.80
2022-08-26T01:50:30.494Z,17.80
2022-08-26T01:53:00.101Z,17.80
2022-08-26T01:55:32.269Z,17.80
2022-08-26T01:58:02.131Z,17.80
2022-08-26T02:00:29.407Z,17.80
2022-08-26T02:03:16.470Z,17.70
2022-08-26T02:05:56.202Z,17.60
2022-08-26T02:08:44.057Z,17.60
2022-08-26T02:11:12.015Z,17.60
2022-08-26T02:13:41.730Z,17.60
2022-08-26T02:16:09.796Z,17.50
2022-08-26T02:18:39.839Z,17.60
2022-08-26T02:21:07.727Z,17.60
2022-08-26T02:23:35.769Z,17.50
2022-08-26T02:26:08.541Z,17.50
2022-08-26T02:28:46.937Z,17.60
2022-08-26T02:31:14.274Z,17.50
2022-08-26T02:33:43.018Z,17.50
2022-08-26T02:36:10.660Z,17.50
2022-08-26T02:38:39.457Z,17.40
2022-08-26T02:41:07.985Z,17.50
2022-08-26T02:43:35.462Z,17.40
2022-08-26T02:46:02.745Z,17.40
2022-08-26T02:48:39.771Z,17.40
2022-08-26T02:51:11.341Z,17.40
2022-08-26T02:53:38.642Z,17.40
2022-08-26T02:56:09.318Z,17.40
2022-08-26T02:58:36.727Z,17.40
2022-08-26T03:01:04.886Z,17.40
2022-08-26T03:03:35.765Z,17.30
2022-08-26T03:08:59.484Z,17.40
2022-08-26T03:11:30.879Z,17.40
2022-08-26T03:14:00.624Z,17.40
2022-08-26T03:16:37.208Z,17.40
2022-08-26T03:19:06.272Z,17.40
2022-08-26T03:21:41.022Z,17.30
2022-08-26T03:24:10.461Z,17.30
2022-08-26T03:26:37.715Z,17.30
2022-08-26T03:29:24.979Z,17.30
2022-08-26T03:31:52.232Z,17.20
2022-08-26T03:34:26.066Z,17.30
2022-08-26T03:36:53.478Z,17.30
2022-08-26T03:39:23.806Z,17.20
2022-08-26T03:41:54.895Z,17.20
2022-08-26T03:47:08.876Z,17.20
2022-08-26T03:49:39.156Z,17.20
2022-08-26T03:52:10.181Z,17.20
2022-08-26T03:54:41.194Z,17.30
2022-08-26T03:57:13.297Z,17.30
2022-08-26T03:59:46.297Z,17.30
2022-08-26T04:02:22.327Z,17.20
2022-08-26T04:04:54.577Z,17.20
2022-08-26T04:07:24.159Z,17.30
2022-08-26T04:10:06.876Z,17.30
2022-08-26T04:12:37.499Z,17.30
2022-08-26T04:15:10.918Z,17.30
2022-08-26T04:17:43.547Z,17.40
2022-08-26T04:20:16.157Z,17.30
2022-08-26T04:22:54.506Z,17.30
2022-08-26T04:25:24.346Z,17.30
2022-08-26T04:27:53.670Z,17.30
2022-08-26T04:30:33.041Z,17.30
2022-08-26T04:33:04.140Z,17.30
2022-08-26T04:35:44.458Z,17.40
2022-08-26T04:38:16.518Z,17.40
2022-08-26T04:40:54.949Z,17.30
2022-08-26T04:43:31.273Z,17.40
2022-08-26T04:46:01.005Z,17.40
2022-08-26T04:48:31.986Z,17.40
2022-08-26T04:50:59.990Z,17.50
2022-08-26T04:53:28.402Z,17.50
2022-08-26T04:55:56.027Z,17.50
2022-08-26T04:58:24.761Z,17.50
2022-08-26T05:00:53.527Z,17.50
2022-08-26T05:03:21.495Z,17.50
2022-08-26T05:05:52.165Z,17.60
2022-08-26T05:08:20.923Z,17.50
2022-08-26T05:11:03.130Z,17.50
2022-08-26T05:13:33.086Z,17.50
2022-08-26T05:16:12.222Z,17.50
2022-08-26T05:18:39.767Z,17.60
2022-08-26T05:21:07.311Z,17.60
2022-08-26T05:23:36.457Z,17.60
2022-08-26T05:26:07.129Z,17.60
2022-08-26T05:28:37.766Z,17.60
2022-08-26T05:31:15.954Z,17.60
2022-08-26T05:33:46.708Z,17.60
2022-08-26T05:36:16.005Z,17.60
2022-08-26T05:38:43.983Z,17.60
2022-08-26T05:41:17.699Z,17.70
2022-08-26T05:43:46.609Z,17.70
2022-08-26T05:46:15.028Z,17.70
2022-08-26T05:48:44.219Z,17.80
2022-08-26T05:51:14.169Z,17.80
2022-08-26T05:53:43.808Z,17.80
2022-08-26T05:56:24.691Z,17.80
2022-08-26T05:58:52.165Z,17.90
2022-08-26T06:01:27.462Z,17.90
2022-08-26T06:03:59.674Z,18.00
2022-08-26T06:06:34.404Z,18.00
2022-08-26T06:09:03.084Z,18.10
2022-08-26T06:11:32.303Z,18.10
2022-08-26T06:14:03.780Z,18.10
2022-08-26T06:16:34.608Z,18.20
2022-08-26T06:19:02.896Z,18.30
2022-08-26T06:21:34.527Z,18.40
2022-08-26T06:24:26.972Z,18.40
2022-08-26T06:27:01.419Z,18.50
2022-08-26T06:29:33.527Z,18.60
2022-08-26T06:32:01.187Z,18.70
2022-08-26T06:34:31.511Z,18.70
2022-08-26T06:37:01.210Z,18.80
2022-08-26T06:39:30.898Z,18.90
2022-08-26T06:42:00.015Z,19.00
2022-08-26T06:44:27.357Z,19.10
2022-08-26T06:46:54.764Z,19.10
2022-08-26T06:49:25.777Z,19.20
2022-08-26T06:51:58.237Z,19.30
2022-08-26T06:54:32.648Z,19.30
2022-08-26T06:57:01.641Z,19.40
2022-08-26T06:59:31.101Z,19.50
2022-08-26T07:01:58.391Z,19.50
2022-08-26T07:04:29.734Z,19.60
2022-08-26T07:06:57.057Z,19.70
2022-08-26T07:09:27.308Z,19.70
2022-08-26T07:11:56.488Z,19.80
2022-08-26T07:14:24.930Z,19.80
2022-08-26T07:16:53.778Z,19.90
2022-08-26T07:19:30.033Z,19.90
2022-08-26T07:22:04.397Z,20.00
2022-08-26T07:24:33.083Z,20.10
2022-08-26T07:27:05.425Z,20.10
2022-08-26T07:29:33.789Z,20.20
2022-08-26T07:32:01.072Z,20.20
2022-08-26T07:34:28.486Z,20.30
2022-08-26T07:36:56.830Z,20.40
2022-08-26T07:39:24.972Z,20.40
2022-08-26T07:41:52.499Z,20.50
2022-08-26T07:44:19.918Z,20.60
2022-08-26T07:46:53.263Z,20.70
2022-08-26T07:49:26.739Z,20.80
2022-08-26T07:51:56.803Z,20.90
2022-08-26T07:54:32.806Z,20.90
2022-08-26T07:57:00.212Z,20.90
2022-08-26T07:59:27.470Z,21.00
2022-08-26T08:01:55.043Z,21.00
2022-08-26T08:04:26.559Z,21.00
2022-08-26T08:06:56.901Z,21.00
2022-08-26T08:09:26.338Z,21.00
2022-08-26T08:11:54.429Z,21.10
2022-08-26T08:14:22.123Z,21.10
2022-08-26T08:16:54.729Z,21.20
2022-08-26T08:19:36.529Z,21.20
2022-08-26T08:22:05.248Z,21.20
2022-08-26T08:24:44.706Z,21.30
2022-08-26T08:27:12.114Z,21.30
2022-08-26T08:29:41.223Z,21.30
2022-08-26T08:32:11.634Z,21.30
2022-08-26T08:37:15.986Z,21.40
2022-08-26T08:39:44.933Z,21.40
2022-08-26T08:42:27.546Z,21.40
2022-08-26T08:44:57.214Z,21.40
2022-08-26T08:47:36.212Z,21.50
2022-08-26T08:50:31.573Z,21.50
2022-08-26T08:53:15.089Z,21.60
2022-08-26T08:55:48.684Z,21.60
2022-08-26T08:58:22.007Z,21.60
2022-08-26T09:00:57.924Z,21.70
2022-08-26T09:03:36.754Z,21.70
2022-08-26T09:06:16.841Z,21.80
2022-08-26T09:08:47.410Z,21.80
2022-08-26T09:11:18.464Z,21.80
2022-08-26T09:13:49.544Z,21.80
2022-08-26T09:17:12.011Z,21.90
2022-08-26T09:20:18.544Z,21.90
2022-08-26T09:22:46.298Z,21.90
2022-08-26T09:25:14.286Z,21.90
2022-08-26T09:27:50.229Z,21.90
2022-08-26T09:30:29.702Z,21.90
2022-08-26T09:32:58.213Z,21.80
2022-08-26T09:35:38.586Z,21.80
2022-08-26T09:38:28.003Z,21.80
2022-08-26T09:41:02.093Z,21.80
2022-08-26T09:43:29.621Z,21.80
2022-08-26T09:46:29.592Z,21.80
2022-08-26T09:48:56.930Z,21.90
2022-08-26T09:51:34.351Z,21.90
2022-08-26T09:54:02.666Z,21.90
2022-08-26T09:56:37.446Z,22.00
2022-08-26T09:59:06.540Z,22.10
2022-08-26T10:01:43.503Z,22.10
2022-08-26T10:04:26.740Z,22.20
2022-08-26T10:07:05.442Z,22.30
2022-08-26T10:09:39.858Z,22.40
2022-08-26T10:12:10.705Z,22.50
2022-08-26T10:14:49.503Z,22.60
2022-08-26T10:17:36.395Z,22.80
2022-08-26T10:20:23.243Z,22.90
2022-08-26T10:23:13.996Z,23.00
2022-08-26T10:25:48.857Z,23.10
2022-08-26T10:28:23.218Z,23.20
2022-08-26T10:31:04.072Z,23.20
2022-08-26T10:33:31.566Z,23.20
2022-08-26T10:36:01.586Z,23.20
2022-08-26T10:38:39.009Z,23.10
2022-08-26T10:41:11.666Z,23.00
2022-08-26T10:43:45.510Z,22.90
2022-08-26T10:46:14.756Z,22.90
2022-08-26T10:48:52.981Z,22.80
2022-08-26T10:51:26.923Z,22.70
2022-08-26T10:53:58.950Z,22.70
2022-08-26T10:56:41.190Z,22.60
2022-08-26T10:59:34.536Z,22.60
2022-08-26T11:02:39.555Z,22.70
2022-08-26T11:05:24.711Z,22.70
2022-08-26T11:07:56.010Z,22.80
2022-08-26T11:10:24.398Z,22.80
2022-08-26T11:13:03.527Z,22.90
2022-08-26T11:15:30.778Z,22.90
2022-08-26T11:18:01.949Z,23.00
2022-08-26T11:20:55.336Z,23.00
2022-08-26T11:23:22.565Z,23.10
2022-08-26T11:25:56.034Z,23.20
2022-08-26T11:28:37.463Z,23.30
2022-08-26T11:31:08.593Z,23.50
2022-08-26T11:33:51.232Z,23.60
2022-08-26T11:36:45.912Z,23.90
2022-08-26T11:39:46.272Z,24.10
2022-08-26T11:42:43.381Z,24.40
2022-08-26T11:45:18.537Z,24.70
2022-08-26T11:47:46.831Z,24.90
2022-08-26T11:50:26.281Z,25.10
2022-08-26T11:53:07.618Z,25.30
2022-08-26T11:55:36.475Z,25.50
2022-08-26T11:58:05.154Z,25.60
2022-08-26T12:00:54.983Z,25.70
2022-08-26T12:03:26.010Z,25.90
2022-08-26T12:05:53.641Z,25.90
2022-08-26T12:08:24.814Z,26.00
2022-08-26T12:11:06.911Z,25.90
2022-08-26T12:13:34.325Z,26.00
2022-08-26T12:16:02.598Z,25.90
2022-08-26T12:18:37.030Z,26.00
2022-08-26T12:21:22.693Z,26.10
2022-08-26T12:23:54.582Z,26.20
2022-08-26T12:26:29.342Z,26.30
2022-08-26T12:29:26.676Z,26.40
2022-08-26T12:32:14.549Z,26.50
2022-08-26T12:34:42.401Z,26.50
2022-08-26T12:37:11.899Z,26.50
2022-08-26T12:39:40.858Z,26.50
2022-08-26T12:42:15.772Z,26.60
2022-08-26T12:44:53.112Z,26.60
2022-08-26T12:47:41.804Z,26.50
2022-08-26T12:50:31.686Z,26.50
2022-08-26T12:53:02.055Z,26.50
2022-08-26T12:55:32.106Z,26.30
2022-08-26T12:58:18.151Z,26.10
2022-08-26T13:00:53.132Z,26.10
2022-08-26T13:03:38.505Z,26.00
2022-08-26T13:06:16.978Z,25.80
2022-08-26T13:08:48.636Z,25.60
2022-08-26T13:11:20.860Z,25.70
2022-08-26T13:13:52.563Z,25.80
2022-08-26T13:16:21.600Z,25.80
2022-08-26T13:18:51.058Z,25.70
2022-08-26T13:21:26.933Z,25.60
2022-08-26T13:23:54.488Z,25.40
2022-08-26T13:26:22.091Z,25.30
2022-08-26T13:28:49.545Z,25.20
2022-08-26T13:31:29.736Z,25.10
2022-08-26T13:33:57.604Z,25.00
2022-08-26T13:36:24.922Z,24.90
2022-08-26T13:38:52.212Z,24.80
2022-08-26T13:41:29.414Z,24.70
2022-08-26T13:43:58.835Z,24.80
2022-08-26T13:46:27.674Z,25.00
2022-08-26T13:48:56.013Z,25.30
2022-08-26T13:51:23.338Z,25.60
2022-08-26T13:53:50.917Z,25.70
2022-08-26T13:56:18.897Z,25.70
2022-08-26T13:58:46.599Z,25.70
2022-08-26T14:01:15.576Z,25.80
2022-08-26T14:03:43.192Z,25.90
2022-08-26T14:06:10.573Z,26.00
2022-08-26T14:08:38.541Z,26.00
2022-08-26T14:11:06.011Z,26.00
2022-08-26T14:13:33.425Z,26.00
2022-08-26T14:16:01.577Z,26.00
2022-08-26T14:18:33.311Z,26.00
2022-08-26T14:21:00.704Z,26.10
2022-08-26T14:23:28.037Z,26.20
2022-08-26T14:25:55.382Z,26.10
2022-08-26T14:28:23.124Z,26.00
2022-08-26T14:30:55.370Z,25.90
2022-08-26T14:33:24.661Z,25.80
2022-08-26T14:35:52.031Z,25.60
2022-08-26T14:38:19.322Z,25.50
2022-08-26T14:40:46.598Z,25.40
2022-08-26T14:43:15.279Z,25.20
2022-08-26T14:48:15.629Z,25.10
2022-08-26T14:50:42.934Z,25.10
2022-08-26T14:53:28.934Z,25.10
2022-08-26T14:55:56.218Z,25.20
2022-08-26T14:58:23.525Z,25.20
2022-08-26T15:00:50.777Z,25.10
2022-08-26T15:05:48.147Z,25.20
2022-08-26T15:08:15.898Z,25.10
2022-08-26T15:10:43.572Z,25.10
2022-08-26T15:13:10.846Z,25.10
2022-08-26T15:15:38.084Z,25.00
2022-08-26T15:18:05.947Z,24.90
2022-08-26T15:23:06.967Z,24.80
2022-08-26T15:25:34.379Z,24.70
2022-08-26T15:28:01.820Z,24.60
2022-08-26T15:30:29.082Z,24.50
2022-08-26T15:32:56.342Z,24.40
2022-08-26T15:35:24.041Z,24.40
2022-08-26T15:40:25.502Z,24.30
2022-08-26T15:43:01.258Z,24.40
2022-08-26T15:45:38.844Z,24.40
2022-08-26T15:48:06.538Z,24.50
2022-08-26T15:50:34.386Z,24.70
2022-08-26T15:53:01.903Z,24.80
2022-08-26T15:55:29.149Z,24.90
2022-08-26T15:57:57.030Z,25.00
2022-08-26T16:00:24.285Z,25.00
2022-08-26T16:02:51.606Z,25.10
2022-08-26T16:05:18.960Z,25.20
2022-08-26T16:07:46.218Z,25.20
2022-08-26T16:10:13.481Z,25.10
2022-08-26T16:12:40.764Z,25.10
2022-08-26T16:15:08.883Z,25.00
2022-08-26T16:17:36.194Z,25.00
2022-08-26T16:20:04.666Z,24.90
2022-08-26T16:22:31.908Z,24.80
2022-08-26T16:25:00.547Z,24.80
2022-08-26T16:27:27.809Z,24.70
2022-08-26T16:29:55.310Z,24.60
2022-08-26T16:32:22.582Z,24.50
2022-08-26T16:34:56.790Z,24.50
2022-08-26T16:37:24.310Z,24.40
2022-08-26T16:39:51.639Z,24.30
2022-08-26T16:42:19.007Z,24.30
2022-08-26T16:44:46.362Z,24.20
2022-08-26T16:47:17.926Z,24.10
2022-08-26T16:49:45.228Z,24.10
2022-08-26T16:52:12.508Z,24.00
2022-08-26T16:54:41.554Z,23.90
2022-08-26T16:57:09.242Z,23.90
2022-08-26T16:59:36.526Z,23.80
2022-08-26T17:02:04.126Z,23.80
2022-08-26T17:04:31.912Z,23.70
2022-08-26T17:06:59.574Z,23.70
2022-08-26T17:09:26.920Z,23.60
2022-08-26T17:11:54.335Z,23.60
2022-08-26T17:14:21.675Z,23.60
2022-08-26T17:16:51.256Z,23.50
2022-08-26T17:19:19.153Z,23.50
2022-08-26T17:21:46.735Z,23.50
2022-08-26T17:24:14.478Z,23.40
2022-08-26T17:26:44.295Z,23.40
2022-08-26T17:29:15.706Z,23.30
2022-08-26T17:31:43.583Z,23.30
2022-08-26T17:34:10.909Z,23.20
2022-08-26T17:39:58.592Z,23.10
2022-08-26T17:42:31.511Z,23.00
2022-08-26T17:44:59.267Z,23.00
2022-08-26T17:47:29.669Z,22.90
2022-08-26T17:49:57.095Z,22.80
2022-08-26T17:52:24.405Z,22.70
2022-08-26T17:54:56.322Z,22.60
2022-08-26T17:57:24.181Z,22.50
2022-08-26T17:59:51.722Z,22.50
2022-08-26T18:02:20.956Z,22.40
2022-08-26T18:04:48.484Z,22.40
2022-08-26T18:07:16.085Z,22.40
2022-08-26T18:09:43.470Z,22.30
2022-08-26T18:12:10.938Z,22.30
2022-08-26T18:14:38.302Z,22.20
2022-08-26T18:17:05.609Z,22.20
2022-08-26T18:19:32.927Z,22.10
2022-08-26T18:22:00.257Z,22.10
2022-08-26T18:24:30.332Z,22.00
2022-08-26T18:26:57.749Z,22.00
2022-08-26T18:29:25.479Z,21.90
2022-08-26T18:31:52.761Z,21.90
2022-08-26T18:34:20.936Z,21.80
2022-08-26T18:36:48.209Z,21.80
2022-08-26T18:39:15.738Z,21.70
2022-08-26T18:41:45.223Z,21.60
2022-08-26T18:44:13.964Z,21.60
2022-08-26T18:46:41.570Z,21.60
2022-08-26T18:49:09.790Z,21.50
2022-08-26T18:51:37.912Z,21.50
2022-08-26T18:54:06.091Z,21.40
2022-08-26T18:56:34.129Z,21.40
2022-08-26T18:59:01.498Z,21.30
2022-08-26T19:01:29.550Z,21.50
2022-08-26T19:03:57.725Z,21.50
2022-08-26T19:06:25.673Z,21.40
2022-08-26T19:08:53.653Z,21.40
2022-08-26T19:11:32.582Z,21.50
2022-08-26T19:14:07.137Z,21.60
2022-08-26T19:16:34.476Z,21.60
2022-08-26T19:19:01.963Z,21.50
2022-08-26T19:21:29.709Z,21.20
2022-08-26T19:24:00.899Z,20.90
2022-08-26T19:26:28.571Z,20.40
2022-08-26T19:28:55.966Z,19.60
2022-08-26T19:31:23.291Z,18.30
2022-08-26T19:33:50.556Z,17.20
2022-08-26T19:36:22.042Z,16.30
2022-08-26T19:38:49.412Z,15.80
2022-08-26T19:41:27.786Z,15.40
2022-08-26T19:44:13.213Z,15.20
2022-08-26T19:46:40.832Z,15.10
2022-08-26T19:49:08.256Z,15.10
2022-08-26T19:51:36.294Z,15.10
2022-08-26T19:54:03.577Z,15.10
2022-08-26T19:56:31.049Z,15.10
2022-08-26T19:58:58.325Z,15.10
2022-08-26T20:01:25.750Z,15.10
2022-08-26T20:03:53.231Z,15.20
2022-08-26T20:06:20.578Z,15.20
2022-08-26T20:08:47.884Z,15.10
2022-08-26T20:11:18.619Z,15.20
2022-08-26T20:13:46.865Z,15.30
2022-08-26T20:16:14.806Z,15.30
2022-08-26T20:19:01.488Z,15.40
2022-08-26T20:21:29.675Z,15.50
2022-08-26T20:24:05.950Z,15.50
2022-08-26T20:26:36.810Z,15.50
2022-08-26T20:29:04.717Z,15.60
2022-08-26T20:31:32.164Z,15.50
2022-08-26T20:33:59.449Z,15.50
2022-08-26T20:36:26.991Z,15.60
2022-08-26T20:38:54.618Z,15.60
2022-08-26T20:41:22.838Z,15.60
2022-08-26T20:43:50.103Z,15.60
2022-08-26T20:46:20.302Z,15.60
2022-08-26T20:48:50.278Z,15.60
2022-08-26T20:51:17.743Z,15.60
2022-08-26T20:53:45.010Z,15.70
2022-08-26T20:56:13.414Z,15.70
2022-08-26T20:58:40.862Z,15.70
2022-08-26T21:01:08.988Z,15.80
2022-08-26T21:03:36.576Z,15.80
2022-08-26T21:06:04.029Z,15.90
2022-08-26T21:08:33.538Z,15.90
2022-08-26T21:11:01.879Z,15.90
2022-08-26T21:13:42.813Z,15.90
2022-08-26T21:16:18.603Z,15.90
2022-08-26T21:18:46.382Z,16.00
2022-08-26T21:21:13.758Z,16.00
2022-08-26T21:23:41.027Z,16.00
2022-08-26T21:26:10.755Z,16.10
2022-08-26T21:28:39.372Z,16.20
2022-08-26T21:31:08.154Z,16.20
2022-08-26T21:33:35.514Z,16.30
2022-08-26T21:36:03.273Z,16.30
2022-08-26T21:38:33.774Z,16.30
2022-08-26T21:41:09.505Z,16.40
2022-08-26T21:43:36.849Z,16.50
2022-08-26T21:46:15.133Z,16.50
2022-08-26T21:48:50.357Z,16.50
2022-08-26T21:51:19.501Z,16.40
2022-08-26T21:53:46.778Z,16.40
2022-08-26T21:56:15.296Z,16.40
2022-08-26T21:58:42.576Z,16.40
2022-08-26T22:01:21.400Z,16.40
2022-08-26T22:03:49.464Z,16.30
2022-08-26T22:06:17.427Z,16.30
2022-08-26T22:08:44.717Z,16.30
2022-08-26T22:11:12.083Z,16.40
2022-08-26T22:13:40.014Z,16.40
2022-08-26T22:16:07.537Z,16.40
2022-08-26T22:18:35.046Z,16.40
2022-08-26T22:21:04.810Z,16.40
2022-08-26T22:23:32.250Z,16.40
2022-08-26T22:25:59.740Z,16.40
2022-08-26T22:28:27.396Z,16.40
2022-08-26T22:30:55.587Z,16.40
2022-08-26T22:33:23.033Z,16.40
2022-08-26T22:35:50.994Z,16.40
2022-08-26T22:38:19.066Z,16.40
2022-08-26T22:40:49.433Z,16.40
2022-08-26T22:43:17.962Z,16.40
2022-08-26T22:45:46.869Z,16.50
2022-08-26T22:48:15.930Z,16.50
2022-08-26T22:50:44.024Z,16.60
2022-08-26T22:53:11.517Z,16.60
2022-08-26T22:55:38.994Z,16.70
2022-08-26T22:58:06.385Z,16.70
2022-08-26T23:00:34.209Z,16.80
2022-08-26T23:03:01.812Z,16.80
2022-08-26T23:05:29.659Z,16.90
2022-08-26T23:07:57.555Z,16.90
2022-08-26T23:10:25.318Z,16.90
2022-08-26T23:12:52.904Z,17.00
2022-08-26T23:15:20.750Z,17.00
2022-08-26T23:17:48.324Z,17.00
2022-08-26T23:20:26.971Z,17.00
2022-08-26T23:22:54.929Z,17.00
2022-08-26T23:25:22.270Z,17.00
2022-08-26T23:27:51.779Z,17.00
2022-08-26T23:30:21.274Z,17.00
2022-08-26T23:32:48.586Z,17.00
2022-08-26T23:35:16.033Z,17.00
2022-08-26T23:37:44.994Z,17.00
2022-08-26T23:40:42.595Z,17.10
2022-08-26T23:43:11.441Z,17.10
2022-08-26T23:45:38.914Z,17.10
2022-08-26T23:48:06.487Z,17.10
2022-08-26T23:50:52.292Z,17.10
2022-08-26T23:53:21.628Z,17.10
2022-08-26T23:55:50.410Z,17.10
2022-08-26T23:58:18.526Z,17.10
